Tiempo atmosférico en la estación meteorológica de Moguer, El Arenosillo, Huelva (41 m.)



Fecha
DESCASC
Temp. máxima en grados centígrados (hora)
DESCASC
Temp. mínima en grados centígrados (hora)
DESCASC
Temp. media en grados centígrados
DESCASC
Racha de viento máxima en m/sg (hora)
DESCASC
Velocidad máxima media en intervalos de 10 minutos(hora)
DESCASC
Precipitaciones diarias en mm
DESCASC
Precipitaciones de 00:00 a 06:00 en mm
DESCASC
Precipitaciones de 06:00 a 12:00 en mm
DESCASC
Precipitaciones de 12:00 a 18:00 en mm
DESCASC
Precipitaciones de 18:00 a 24:00 en mm
DESCASC
26-11-2020 16.3 (08:10) 10.3 (18:20) 13.3 15.28 (11:40) 8.33 (03:40) 14.1 0.5 3.2 9.1 1.3
25-11-2020 18.5 (10:20) 8.5 (02:40) 13.5 15 (20:20) 8.61 (14:40) 34.9 0 7.7 2.7 24.5
24-11-2020 19.7 (14:40) 7.8 (08:00) 13.8 6.94 (15:00) 3.89 (12:30) 0 0 0 0 0
23-11-2020 20.7 (15:50) 8.3 (08:40) 14.5 6.39 (07:20) 4.17 (06:00) 0 0 0 0 0
22-11-2020 20.8 (15:20) 10.7 (00:00) 15.7 5.83 (10:20) 3.61 (10:20) 0 0 0 0 0
21-11-2020 22.9 (16:10) 10.4 (00:00) 16.6 6.11 (10:00) 3.89 (09:40) 0 0 0 0 0
20-11-2020 24.2 (15:40) 11.8 (00:00) 18 7.5 (14:40) 4.44 (14:40) 0 0 0 0 0
19-11-2020 25.8 (15:30) 12 (00:00) 18.9 7.22 (12:10) 4.17 (12:20) 0.1 0 0.1 0 0
18-11-2020 22.7 (16:50) 13 (00:00) 17.9 7.22 (10:10) 4.44 (07:50) 0 0 0 0 0
17-11-2020 21 (15:50) 12.1 (00:00) 16.6 5.28 (08:30) 3.33 (11:10) 0.2 0.1 0.1 0 0
16-11-2020 20.1 (14:40) 14 (00:00) 17.1 4.17 (04:00) 2.5 (03:50) 0.2 0 0.1 0 0.1
15-11-2020 24.6 (14:00) 15.8 (00:00) 20.2 7.22 (08:10) 4.17 (08:10) 0.2 0.1 0.1 0 0
14-11-2020 20.7 (14:50) 16.3 (00:00) 18.5 7.5 (03:20) 4.44 (12:30) 8.2 5.4 2.6 0.1 0.1
13-11-2020 21.9 (13:50) 12.4 (00:00) 17.1 6.39 (12:00) 4.44 (19:20) 0 0 0 0 0
12-11-2020 23.3 (15:30) 12.4 (00:00) 17.8 7.5 (09:50) 4.44 (09:50) 0 0 0 0 0
11-11-2020 23.3 (14:40) 11.2 (00:00) 17.2 7.22 (12:20) 4.17 (10:30) 0 0 0 0 0
10-11-2020 23 (15:50) 11.6 (00:00) 17.3 6.94 (14:50) 3.89 (11:10) 0 0 0 0 0
09-11-2020 22.5 (14:30) 13.9 (00:00) 18.2 7.5 (02:20) 3.89 (02:20) 8 7.9 0.1 0 0
08-11-2020 21.4 (15:40) 11.7 (00:00) 16.5 5.83 (11:00) 3.33 (14:00) 0.1 0 0.1 0 0
07-11-2020 21.8 (15:40) 13.9 (00:00) 17.8 20 (02:40) 4.17 (06:10) 2.8 2.8 0 0 0
06-11-2020 20.8 (12:20) 14.5 (00:00) 17.6 20.28 (22:00) 8.89 (22:20) 6.3 0.2 0 0.1 6
05-11-2020 -- (--) -- (--) -- -- (--) -- (--) -- -- -- -- --
04-11-2020 -- (--) -- (--) -- -- (--) -- (--) -- 0 0 0 --
03-11-2020 19 (09:30) 15.9 (00:00) 17.4 6.11 (12:00) 4.17 (01:10) 2.4 0 0 2.3 0.1
02-11-2020 24.4 (11:50) 11.6 (00:00) 18 6.39 (20:00) 3.89 (22:10) 0 0 0 0 0
01-11-2020 24.2 (16:40) 13.7 (00:00) 19 6.39 (17:00) 3.89 (01:00) 0 0 0 0 0
31-10-2020 21.3 (13:40) 10.8 (00:00) 16 4.72 (23:59) 3.33 (23:59) 0 0 0 0 0
30-10-2020 24.1 (15:50) 13.1 (00:00) 18.6 6.11 (07:40) 4.17 (07:40) 0 0 0 0 0
29-10-2020 26.7 (14:20) 12.8 (00:00) 19.8 8.89 (11:00) 5.28 (10:50) 0 0 0 0 0
28-10-2020 24 (16:50) 11.5 (00:00) 17.8 5.83 (16:50) 3.61 (17:00) 0 0 0 0 0

Gráficas

Temp. máximas Temp. mínimas Temp. medias Precipitaciones Rachas de viento máximas Velocidades máximas media en intervalos de 10 minutos

Datos horarios

Fecha y hora oficial Temperatura (ºC) Velocidad del viento (km/h) Dirección del viento Racha (km/h) Dirección de racha Precipitación (mm) Presión (hPa) Tendencia (hPa) Humedad (%)
2020-11-26 23:00:00 10.8 8 Este 20 Este 0.8 1002.7 0.4 97
2020-11-26 22:00:00 10.7 12 Este 23 Este 0.1 1002.9 0.8 97
2020-11-26 21:00:00 10.6 14 Este 23 Este 0 1003 -- 96
2020-11-26 20:00:00 11.9 7 Sudeste 21 Sudeste 0 1002.3 -- 91
2020-11-26 19:00:00 11.1 4 Sudeste 18 Este 0.4 1002.1 -- 98
2020-11-26 18:00:00 10.6 9 Este 19 Sudeste 0.4 1001.9 -- 97
2020-11-26 17:00:00 11 9 Este 19 Este 0.9 1001.4 -0.2 97
2020-11-26 16:00:00 11.5 5 Sudeste 13 Sur 2 1001 -- 96
2020-11-26 15:00:00 11.7 5 Sudeste 24 Sudeste 2.4 1001.5 -- 96
2020-11-26 14:00:00 11.5 13 Sur 34 Sudeste 3.3 1001.6 -- 92
2020-11-26 13:00:00 13 15 Sudeste 32 Sudeste 0.1 1001.3 -- 89
2020-11-26 12:00:00 13.3 12 Este 55 Este 0.1 1001.7 -- 95
2020-11-26 11:00:00 12.8 15 Sudeste 39 Sudeste 2.8 1001.8 -- 93
2020-11-26 10:00:00 13.4 14 Este 32 Este 0 1001.3 -- 89
2020-11-26 09:00:00 15.4 15 Sudoeste 39 Sudoeste 0 1000.6 -- 72
2020-11-26 08:00:00 15.8 15 Sudoeste 31 Sudoeste 0 1000.5 -- 74
2020-11-26 07:00:00 14.9 14 Sudeste 39 Sur 0.3 1000.3 -- 82
2020-11-26 06:00:00 15.6 17 Sur 40 Sur 0 1000.2 -- 74
2020-11-26 05:00:00 15 24 Sur 39 Sur 0.1 1000.7 -- 76
2020-11-26 04:00:00 14.2 22 Sur 47 Sur 0.3 1001.2 -- 81
2020-11-26 03:00:00 11.9 13 Este 31 Este 0 1002.1 -- 98
2020-11-26 02:00:00 11.8 15 Este 29 Este 0.1 1002.2 -- 98
2020-11-26 01:00:00 11.6 12 Este 26 Este 0 1003.2 -- 98
2020-11-26 00:00:00 11.8 11 Este 26 Este 0.4 1004.1 -- 98
2020-11-25 23:00:00 12 10 Este 22 Nordeste 0 1004.1 -- 98
2020-11-25 22:00:00 12.5 4 Nordeste 16 Oeste 0.7 1004.8 -- 97
2020-11-25 21:00:00 12.7 10 Noroeste 54 Sur 14.1 1004.1 -- 95
2020-11-25 20:00:00 14.9 22 Sudeste 44 Sudeste 5 1003.9 -- 97
2020-11-25 19:00:00 14.6 18 Sur 37 Sudeste 4.3 1004.2 -- 95
2020-11-25 18:00:00 15.9 17 Sur 36 Sur 0 1004.7 -- 94
2020-11-25 17:00:00 15.3 11 Sur 27 Sur 0.1 1004.9 -- 90
2020-11-25 16:00:00 16.4 18 Sur 33 Sudoeste 0.1 1004.9 -- 84
2020-11-25 15:00:00 16 20 Sur 48 Sudoeste 2 1005 -- 89
2020-11-25 14:00:00 16 16 Sur 29 Sur 0.1 1006.7 -- 87
2020-11-25 13:00:00 15.2 13 Sur 26 Sur 0.4 1007.9 -- 96
2020-11-25 12:00:00 14.8 10 Sur 21 Sudoeste 1.8 1008.7 -- 96
2020-11-25 11:00:00 14.3 16 Sudoeste 40 Oeste 5.9 1010.3 -- 94
2020-11-25 10:00:00 18.2 21 Sur 35 Sur 0 1009.5 -- 78
2020-11-25 09:00:00 17.8 17 Sur 30 Sur 0 1009.6 -- 77
2020-11-25 08:00:00 17.8 18 Sur 27 Sur 0 1010.1 -- 76
2020-11-25 07:00:00 15.7 8 Sur 21 Sudoeste 0 1010.8 -- 85
2020-11-25 06:00:00 10.9 6 Este 16 Este 0 1011.4 -- 96
2020-11-25 05:00:00 10.5 6 Este 11 Este 0 1012 -- 97
2020-11-25 04:00:00 10 5 Nordeste 10 Este 0 1012.8 -- 97
2020-11-25 03:00:00 9.3 6 Este 9 Este 0 1013.3 -- 95
2020-11-25 02:00:00 9.6 4 Nordeste 7 Norte 0 1014 -- 92
2020-11-25 01:00:00 10.7 4 Norte 8 Noroeste 0 1014.7 -- 92
2020-11-25 00:00:00 10.7 5 Nordeste 8 Nordeste 0 1014.9 -- 90
2020-11-24 23:00:00 12.2 6 Nordeste 11 Norte 0 1015.4 -- 87
2020-11-24 22:00:00 12.2 8 Norte 12 Norte 0 1015.6 -- 86
2020-11-24 21:00:00 12.9 6 Este 12 Nordeste 0 1015 -- 83
2020-11-24 20:00:00 13.7 7 Nordeste 13 Nordeste 0 1015.2 -- 83
2020-11-24 19:00:00 15.2 7 Nordeste 11 Nordeste 0 1015.2 -- 86
2020-11-24 18:00:00 17.1 6 Sudeste 22 Sudeste 0 1015.1 -- 85
2020-11-24 17:00:00 18.8 8 Sudeste 24 Sudeste 0 1015.1 -- 72
2020-11-24 16:00:00 18.8 12 Sudeste 24 Sudeste 0 1015.5 -- 69
2020-11-24 15:00:00 18.6 13 Sudeste 25 Sur 0 1015.9 -- 70
2020-11-24 14:00:00 18.3 12 Este 23 Sudeste 0 1016.9 -- 65
2020-11-24 13:00:00 16.9 12 Este 23 Este 0 1017.9 -- 67
2020-11-24 12:00:00 15.5 13 Este 23 Este 0 1019 -- 68
2020-11-24 11:00:00 14.3 13 Este 23 Este 0 1019.5 -- 69
2020-11-24 10:00:00 12 12 Este 22 Nordeste 0 1019.5 -- 78
2020-11-24 09:00:00 9.3 13 Nordeste 18 Nordeste 0 1019.3 -- 88
2020-11-24 08:00:00 8.4 12 Nordeste 18 Nordeste 0 1019.1 -- 91
2020-11-24 07:00:00 8.8 12 Nordeste 19 Nordeste 0 1018.8 -- 88
2020-11-24 06:00:00 8.7 13 Nordeste 18 Nordeste 0 1018.5 -- 87
2020-11-24 05:00:00 8.9 13 Nordeste 18 Nordeste 0 1018.5 -- 86
2020-11-24 04:00:00 9.2 11 Nordeste 17 Nordeste 0 1018.9 -- 83
2020-11-24 03:00:00 9.9 11 Nordeste 17 Nordeste 0 1019.2 -- 81
2020-11-24 02:00:00 10.3 10 Nordeste 15 Nordeste 0 1019.5 -- 83
2020-11-24 01:00:00 10.5 8 Nordeste 12 Nordeste 0 1019.9 -- 85
2020-11-24 00:00:00 10.8 6 Este 10 Este 0 1020.1 -- 84
2020-11-23 23:00:00 10.8 5 Este 8 Este 0 1020.3 -- 84
2020-11-23 22:00:00 11.3 4 Este 8 Este 0 1020.3 -- 78
2020-11-23 21:00:00 12.7 5 Este 15 Este 0 1020.5 -- 73
2020-11-23 20:00:00 13.8 9 Nordeste 13 Nordeste 0 1020.1 -- 69
2020-11-23 19:00:00 14.9 9 Nordeste 13 Nordeste 0 1019.8 -- 66
2020-11-23 18:00:00 17.2 6 Nordeste 13 Este 0 1019.6 -- 59
2020-11-23 17:00:00 19.7 8 Nordeste 15 Este 0 1019.3 -- 50
2020-11-23 16:00:00 20.3 7 Nordeste 17 Este 0 1019.3 -- 49
2020-11-23 15:00:00 20.4 5 Nordeste 14 Este 0 1019.7 -- 48
2020-11-23 14:00:00 19.7 2 Nordeste 14 Este 0 1020.5 -- 49
2020-11-23 13:00:00 18.9 6 Nordeste 20 Este 0 1021.2 -- 52
2020-11-23 12:00:00 17.2 11 Nordeste 18 Este 0 1022 -- 61
2020-11-23 11:00:00 14.8 9 Nordeste 21 Nordeste 0 1022.2 -- 69
2020-11-23 10:00:00 12.5 10 Nordeste 20 Este 0 1022.2 -- 78
2020-11-23 09:00:00 9.2 12 Nordeste 19 Nordeste 0 1021.7 -- 89
2020-11-23 08:00:00 8.7 11 Nordeste 23 Nordeste 0 1021.1 -- 89
2020-11-23 07:00:00 8.9 14 Nordeste 22 Nordeste 0 1020.6 -- 88
2020-11-23 06:00:00 9.6 15 Nordeste 22 Nordeste 0 1020.4 -- 85
2020-11-23 05:00:00 9.5 13 Nordeste 18 Nordeste 0 1020.6 -- 84
2020-11-23 04:00:00 9.7 12 Nordeste 17 Nordeste 0 1020.8 -- 83
2020-11-23 03:00:00 9.7 12 Nordeste 16 Nordeste 0 1021 -- 81
2020-11-23 02:00:00 10.5 10 Nordeste 15 Nordeste 0 1021.1 -- 78
2020-11-23 01:00:00 10.4 8 Nordeste 12 Nordeste 0 1021.2 -- 81
2020-11-23 00:00:00 10.7 7 Nordeste 12 Nordeste 0 1021.2 -- 81
2020-11-22 23:00:00 11.4 4 Nordeste 6 Este 0 1021.2 -- 78
2020-11-22 22:00:00 11.5 3 Este 6 Este 0 1021.3 -- 79
2020-11-22 21:00:00 13.4 3 Este 15 Nordeste 0 1021 -- 71
2020-11-22 20:00:00 14.8 10 Nordeste 18 Nordeste 0 1020.2 -- 69
2020-11-22 19:00:00 16.3 8 Nordeste 12 Nordeste 0 1019.9 -- 69
2020-11-22 18:00:00 18.3 5 Nordeste 13 Nordeste 0 1019.5 -- 60
2020-11-22 17:00:00 20.3 10 Este 18 Este 0 1019.4 -- 50
2020-11-22 16:00:00 20.6 6 Este 17 Este 0 1019.6 -- 52
2020-11-22 15:00:00 20.3 7 Nordeste 16 Este 0 1020 -- 52
2020-11-22 14:00:00 19.9 6 Nordeste 18 Sudeste 0 1020.9 -- 53
2020-11-22 13:00:00 19.9 5 Este 14 Este 0 1021.3 -- 55
2020-11-22 12:00:00 18.4 8 Nordeste 16 Este 0 1021.8 -- 63
2020-11-22 11:00:00 16.7 9 Nordeste 21 Nordeste 0 1022.1 -- 72
2020-11-22 10:00:00 14.2 10 Nordeste 19 Nordeste 0 1021.9 -- 81
2020-11-22 09:00:00 11.7 12 Nordeste 17 Nordeste 0 1021.7 -- 90
2020-11-22 08:00:00 10.9 11 Nordeste 16 Nordeste 0 1021.2 -- 93
2020-11-22 07:00:00 10.7 10 Nordeste 15 Nordeste 0 1020.9 -- 93
2020-11-22 06:00:00 11.5 9 Nordeste 16 Nordeste 0 1020.4 -- 91
2020-11-22 05:00:00 11.6 10 Nordeste 15 Nordeste 0 1020.3 -- 90
2020-11-22 04:00:00 11.8 10 Nordeste 17 Nordeste 0 1020.3 -- 91
2020-11-22 03:00:00 12 12 Nordeste 17 Nordeste 0 1020 -- 90
2020-11-22 02:00:00 11.9 12 Nordeste 18 Nordeste 0 1020 -- 89
2020-11-22 01:00:00 12.4 10 Nordeste 15 Nordeste 0 1020.4 -- 87
2020-11-22 00:00:00 12.4 6 Nordeste 15 Nordeste 0 1020.5 -- 87
2020-11-21 23:00:00 13.3 8 Nordeste 13 Nordeste 0 1020.4 -- 88
2020-11-21 22:00:00 13.4 5 Nordeste 8 Este 0 1019.8 -- 86
2020-11-21 21:00:00 14.3 4 Este 7 Este 0 1019.7 -- 83
2020-11-21 20:00:00 15.5 4 Este 10 Sudeste 0 1019.6 -- 81
2020-11-21 19:00:00 18.3 5 Sudeste 19 Sudeste 0 1019.3 -- 77
2020-11-21 18:00:00 19.5 5 Sudeste 12 Sur 0 1018.8 -- 72
2020-11-21 17:00:00 21.2 0 Calma 9 Sur 0 1018.5 -- 65
2020-11-21 16:00:00 22.8 5 Sur 12 Sur 0 1018.3 -- 58
2020-11-21 15:00:00 22.7 6 Sur 13 Sur 0 1018.3 -- 60
2020-11-21 14:00:00 21.7 9 Sur 18 Este 0 1019 -- 63
2020-11-21 13:00:00 21.6 8 Este 22 Este 0 1019.4 -- 59
2020-11-21 12:00:00 19.9 12 Este 22 Este 0 1020 -- 63
2020-11-21 11:00:00 18.1 10 Este 21 Este 0 1020.2 -- 68
2020-11-21 10:00:00 14.9 14 Nordeste 22 Nordeste 0 1019.9 -- 73
2020-11-21 09:00:00 11.6 12 Nordeste 18 Nordeste 0 1019.6 -- 82
2020-11-21 08:00:00 10.7 10 Nordeste 17 Nordeste 0 1019.1 -- 81
2020-11-21 07:00:00 10.6 10 Nordeste 15 Nordeste 0 1018.5 -- 75
2020-11-21 06:00:00 10.9 9 Nordeste 16 Nordeste 0 1018.1 -- 73
2020-11-21 05:00:00 11.2 10 Nordeste 15 Este 0 1018.3 -- 72
2020-11-21 04:00:00 11.4 7 Nordeste 14 Nordeste 0 1018.1 -- 74
2020-11-21 03:00:00 11.7 8 Nordeste 13 Nordeste 0 1018.2 -- 85
2020-11-21 02:00:00 11.7 6 Nordeste 12 Nordeste 0 1018.5 -- 88
2020-11-21 01:00:00 12.1 5 Este 9 Este 0 1019 -- 93
2020-11-21 00:00:00 13.1 5 Nordeste 9 Nordeste 0 1019 -- 91
2020-11-20 23:00:00 13.2 5 Este 9 Este 0 1019.1 -- 77
2020-11-20 22:00:00 14.3 6 Este 13 Nordeste 0 1019 -- 66
2020-11-20 21:00:00 16.9 9 Nordeste 14 Nordeste 0 1018.6 -- 57
2020-11-20 20:00:00 16.1 7 Nordeste 10 Nordeste 0 1018.6 -- 69
2020-11-20 19:00:00 17.7 6 Nordeste 8 Nordeste 0 1018.4 -- 65
2020-11-20 18:00:00 21.1 3 Nordeste 13 Este 0 1018.2 -- 54
2020-11-20 17:00:00 23.7 5 Este 26 Nordeste 0 1018.3 -- 49
2020-11-20 16:00:00 23.8 15 Nordeste 25 Nordeste 0 1018.2 -- 46
2020-11-20 15:00:00 23.7 14 Nordeste 27 Nordeste 0 1018.8 -- 48
2020-11-20 14:00:00 23.2 13 Nordeste 24 Este 0 1019.6 -- 52
2020-11-20 13:00:00 22.5 12 Este 26 Este 0 1020.6 -- 60
2020-11-20 12:00:00 20 10 Nordeste 18 Nordeste 0 1021.7 -- 68
2020-11-20 11:00:00 17.5 12 Nordeste 21 Nordeste 0 1021.8 -- 77
2020-11-20 10:00:00 15.5 12 Nordeste 20 Nordeste 0 1021.8 -- 87
2020-11-20 09:00:00 13.1 10 Nordeste 16 Nordeste 0 1021.5 -- 95
2020-11-20 08:00:00 12.2 9 Nordeste 15 Nordeste 0 1021.4 -- 96
2020-11-20 07:00:00 12.3 9 Este 14 Nordeste 0 1021.4 -- 96
2020-11-20 06:00:00 12.3 8 Nordeste 13 Nordeste 0 1021.5 -- 96
2020-11-20 05:00:00 12.9 7 Este 11 Este 0 1021.3 -- 96
2020-11-20 04:00:00 13.4 7 Nordeste 10 Norte 0 1021.6 -- 98
2020-11-20 03:00:00 14.4 6 Nordeste 12 Nordeste 0 1022.1 -- 96
2020-11-20 02:00:00 13.5 6 Nordeste 11 Nordeste 0 1022.4 -- 97
2020-11-20 01:00:00 12.7 4 Nordeste 5 Nordeste 0 1022.6 -- 96
2020-11-20 00:00:00 13.4 0 Calma 5 Nordeste 0 1023 -- 95
2020-11-19 23:00:00 14.7 0 Calma 7 Este 0 1023.1 -- 93
2020-11-19 22:00:00 15.2 0 Calma 7 Sudeste 0 1023.2 -- 92
2020-11-19 21:00:00 15.4 0 Calma 4 Noroeste 0 1022.8 -- 91
2020-11-19 20:00:00 16.5 0 Calma 5 Norte 0 1022.5 -- 87
2020-11-19 19:00:00 17.9 3 Noroeste 10 Oeste 0 1021.8 -- 83
2020-11-19 18:00:00 19.4 4 Noroeste 9 Oeste 0 1021.8 -- 79
2020-11-19 17:00:00 20.6 6 Oeste 17 Oeste 0 1021.5 -- 77
2020-11-19 16:00:00 24.9 4 Sudeste 23 Este 0 1021.2 -- 60
2020-11-19 15:00:00 25.2 9 Este 23 Este 0 1021.2 -- 48
2020-11-19 14:00:00 24.6 8 Este 21 Este 0 1021.5 -- 53
2020-11-19 13:00:00 22.8 11 Este 26 Este 0 1022.3 -- 60
2020-11-19 12:00:00 21.1 11 Este 22 Este 0 1022.8 -- 67
2020-11-19 11:00:00 17.9 8 Este 18 Este 0 1022.9 -- 78
2020-11-19 10:00:00 15.5 4 Este 11 Este 0 1022.8 -- 92
2020-11-19 09:00:00 13.1 5 Nordeste 13 Nordeste 0.1 1021.8 -- 98
2020-11-19 08:00:00 12.2 6 Nordeste 9 Nordeste 0 1021.3 -- 98
2020-11-19 07:00:00 12.9 3 Este 13 Nordeste 0 1020.6 -- 98
2020-11-19 06:00:00 12.6 8 Este 14 Este 0 1020.3 -- 98
2020-11-19 05:00:00 13 7 Nordeste 12 Nordeste 0 1020.3 -- 99
2020-11-19 04:00:00 13.5 5 Nordeste 10 Este 0 1020.2 -- 98
2020-11-19 03:00:00 14 6 Este 10 Este 0 1020 -- 99
2020-11-19 02:00:00 13.8 4 Nordeste 9 Nordeste 0 1020.1 -- 98
2020-11-19 01:00:00 13.3 3 Este 5 Este 0 1020.4 -- 98
2020-11-19 00:00:00 13.2 0 Calma -- -- 0 1020.7 -- 96
2020-11-18 23:00:00 14.5 0 Calma 5 Nordeste 0 1020.4 -- 96
2020-11-18 22:00:00 14.8 0 Calma 4 Este 0 1020.2 -- 94
2020-11-18 21:00:00 16 5 Norte 8 Norte 0 1020 -- 91
2020-11-18 20:00:00 17.2 5 Norte 9 Norte 0 1019.7 -- 89
2020-11-18 19:00:00 17.6 4 Noroeste 6 Noroeste 0 1020 -- 88
2020-11-18 18:00:00 19.4 0 Calma 8 Noroeste 0 1019.4 -- 83
2020-11-18 17:00:00 20.8 4 Oeste 7 Noroeste 0 1019.4 -- 79
2020-11-18 16:00:00 22.1 0 Calma 7 Sudoeste 0 1019.5 -- 71
2020-11-18 15:00:00 20.8 4 Sudoeste 9 Sudoeste 0 1019.8 -- 79
2020-11-18 14:00:00 20.6 6 Sur 12 Sur 0 1020.2 -- 79
2020-11-18 13:00:00 21.3 5 Sur 15 Este 0 1020.8 -- 73
2020-11-18 12:00:00 20.7 6 Este 22 Este 0 1021.7 -- 74
2020-11-18 11:00:00 18.4 10 Este 26 Este 0 1021.7 -- 82
2020-11-18 10:00:00 17.2 10 Este 23 Este 0 1021.6 -- 88
2020-11-18 09:00:00 14.8 8 Este 22 Nordeste 0 1021.2 -- 98
2020-11-18 08:00:00 14.5 16 Nordeste 23 Nordeste 0 1020.5 -- 97
2020-11-18 07:00:00 14.8 14 Nordeste 22 Nordeste 0 1020.3 -- 97
2020-11-18 06:00:00 15 14 Nordeste 22 Nordeste 0 1019.9 -- 96
2020-11-18 05:00:00 15.1 14 Nordeste 20 Nordeste 0 1020 -- 95
2020-11-18 04:00:00 15.5 12 Nordeste 17 Nordeste 0 1020.1 -- 94
2020-11-18 03:00:00 15.3 12 Nordeste 17 Este 0 1020.3 -- 94
2020-11-18 02:00:00 15.6 10 Nordeste 15 Nordeste 0 1020.5 -- 94
2020-11-18 01:00:00 15.7 8 Nordeste 13 Nordeste 0 1020.8 -- 94
2020-11-18 00:00:00 16.2 6 Nordeste 11 Nordeste 0 1021.1 -- 94
2020-11-17 23:00:00 16.4 6 Nordeste 11 Nordeste 0 1021.3 -- 94
2020-11-17 22:00:00 16.4 7 Nordeste 11 Nordeste 0 1021 -- 93
2020-11-17 21:00:00 16.8 7 Nordeste 11 Nordeste 0 1021 -- 93
2020-11-17 20:00:00 16.2 3 Nordeste 7 Nordeste 0 1020.7 -- 93
2020-11-17 19:00:00 17.1 0 Calma 2 Noroeste 0 1020.4 -- 91
2020-11-17 18:00:00 19.5 0 Calma 4 Oeste 0 1020.6 -- 83
2020-11-17 17:00:00 20.6 2 Oeste 6 Oeste 0 1020.5 -- 78
2020-11-17 16:00:00 20.6 4 Sudoeste 7 Sudoeste 0 1020.7 -- 76
2020-11-17 15:00:00 20.5 5 Sudoeste 12 Sur 0 1020.9 -- 78
2020-11-17 14:00:00 20.3 5 Sur 10 Sur 0 1021.1 -- 81
2020-11-17 13:00:00 19.8 6 Sur 16 Este 0 1021.4 -- 82
2020-11-17 12:00:00 17.4 8 Este 19 Este 0 1021.8 -- 99
2020-11-17 11:00:00 16.6 8 Este 16 Nordeste 0 1021.9 -- 99
2020-11-17 10:00:00 15.7 2 Este 15 Este 0 1022.1 -- 99
2020-11-17 09:00:00 15.1 6 Este 19 Este 0 1020.7 -- 99
2020-11-17 08:00:00 14.4 4 Este 12 Nordeste 0 1020.2 -- 99
2020-11-17 07:00:00 14.5 3 Este 7 Nordeste 0.1 1020.1 -- 99
2020-11-17 06:00:00 13.9 4 Este 10 Este 0 1019.9 -- 99
2020-11-17 05:00:00 13.8 4 Nordeste 9 Nordeste 0 1019.7 -- 99
2020-11-17 04:00:00 12.4 5 Nordeste 8 Nordeste 0 1019.9 -- 99
2020-11-17 03:00:00 13.2 0 Calma 5 Nordeste 0 1020 -- 99
2020-11-17 02:00:00 13.7 3 Nordeste 6 Nordeste 0 1020.2 -- 99
2020-11-17 01:00:00 13.8 2 Nordeste 7 Nordeste 0.1 1020.2 -- 99
2020-11-17 00:00:00 15.9 2 Este 5 Este 0 1020.4 -- 99
2020-11-16 23:00:00 16.5 0 Calma 4 Sudeste 0 1020.5 -- 99
2020-11-16 22:00:00 16.2 0 Calma 2 Sudoeste 0.1 1020.3 -- 99
2020-11-16 21:00:00 16.1 0 Calma 5 Sudoeste 0 1019.8 -- 99
2020-11-16 20:00:00 16.3 3 Oeste 7 Oeste 0 1019.6 -- 99
2020-11-16 19:00:00 16.5 0 Calma 6 Oeste 0 1019.3 -- 99
2020-11-16 18:00:00 16.9 2 Oeste 7 Sudoeste 0 1018.8 -- 98
2020-11-16 17:00:00 17.6 3 Sudoeste 8 Sudoeste 0 1018.7 -- 96
2020-11-16 16:00:00 18.1 3 Sudoeste 11 Sudoeste 0 1018.7 -- 93
2020-11-16 15:00:00 19.1 7 Sur 12 Sudoeste 0 1018.7 -- 91
2020-11-16 14:00:00 19.6 6 Sur 11 Sur 0 1019.3 -- 88
2020-11-16 13:00:00 18.7 3 Este 10 Nordeste 0 1019.9 -- 91
2020-11-16 12:00:00 17.8 3 Nordeste 12 Nordeste 0 1020.1 -- 94
2020-11-16 11:00:00 17.6 2 Sudoeste 7 Este 0 1020 -- 96
2020-11-16 10:00:00 16.8 0 Calma 8 Nordeste 0 1019.5 -- 99
2020-11-16 09:00:00 14.7 5 Nordeste 8 Nordeste 0 1018.9 -- 99
2020-11-16 08:00:00 14.6 6 Nordeste 9 Nordeste 0.1 1018.4 -- 99
2020-11-16 07:00:00 14.8 5 Norte 7 Norte 0 1017.9 -- 99
2020-11-16 06:00:00 15.2 2 Nordeste 5 Este 0 1017.3 -- 99
2020-11-16 05:00:00 16.6 0 Calma 14 Nordeste 0 1017.2 -- 99
2020-11-16 04:00:00 16.9 9 Norte 15 Norte 0 1017.8 -- 99
2020-11-16 03:00:00 17.6 2 Nordeste 6 Norte 0 1017.5 -- 98
2020-11-16 02:00:00 17.4 0 Calma 4 Norte 0 1017.7 -- 98
2020-11-16 01:00:00 17.6 0 Calma 4 Sur 0 1017.5 -- 97
2020-11-16 00:00:00 18.3 0 Calma 8 Sur 0 1017.5 -- 95
2020-11-15 23:00:00 18.7 2 Sur 6 Sur 0 1017.6 -- 94
2020-11-15 22:00:00 19.3 4 Sur 14 Sur 0 1017.3 -- 92
2020-11-15 21:00:00 19.2 5 Sudeste 13 Sudeste 0 1016.9 -- 90
2020-11-15 20:00:00 19.4 5 Sudeste 8 Sudeste 0 1016.7 -- 86
2020-11-15 19:00:00 20.1 3 Sur 12 Sur 0 1016.5 -- 78
2020-11-15 18:00:00 22 6 Sudeste 17 Sudeste 0 1016 -- 69
2020-11-15 17:00:00 23.5 8 Sudeste 19 Sudeste 0 1015.8 -- 62
2020-11-15 16:00:00 24 10 Sudeste 20 Sudeste 0 1015.8 -- 59
2020-11-15 15:00:00 23.7 10 Sudeste 19 Sudeste 0 1015.9 -- 58
2020-11-15 14:00:00 24.5 7 Sudeste 19 Sudeste 0 1016.5 -- 58
2020-11-15 13:00:00 23.8 7 Sudeste 17 Sudeste 0 1017 -- 63
2020-11-15 12:00:00 22.5 8 Este 20 Este 0 1017.4 -- 78
2020-11-15 11:00:00 19.1 12 Este 24 Este 0 1017.4 -- 91
2020-11-15 10:00:00 17.3 12 Este 22 Este 0 1017.1 -- 99
2020-11-15 09:00:00 16.6 10 Nordeste 26 Este 0.1 1017.1 -- 99
2020-11-15 08:00:00 16.3 12 Este 20 Este 0 1016 -- 99
2020-11-15 07:00:00 16.5 12 Este 20 Nordeste 0 1016.2 -- 99
2020-11-15 06:00:00 16.3 10 Este 21 Este 0 1016 -- 99
2020-11-15 05:00:00 16.6 8 Este 16 Nordeste 0 1016 -- 99
2020-11-15 04:00:00 16.3 7 Nordeste 13 Nordeste 0 1016.5 -- 99
2020-11-15 03:00:00 16.8 4 Nordeste 13 Este 0.1 1016.6 -- 99
2020-11-15 02:00:00 16.8 6 Este 11 Este 0 1016.3 -- 99
2020-11-15 01:00:00 17.7 5 Este 9 Sudeste 0 1016.9 -- 99
2020-11-15 00:00:00 18.1 4 Este 10 Sudeste 0 1017.4 -- 98
2020-11-14 23:00:00 18.6 5 Sudeste 9 Sudeste 0 1017.5 -- 98
2020-11-14 22:00:00 18.8 3 Sudeste 6 Sudeste 0 1017.4 -- 98
2020-11-14 21:00:00 19.1 0 Calma 6 Sudeste 0 1017.3 -- 98
2020-11-14 20:00:00 19.1 4 Sudoeste 9 Sur 0 1017.1 -- 98
2020-11-14 19:00:00 19.1 3 Sur 9 Sur 0.1 1016.6 -- 97
2020-11-14 18:00:00 19.4 4 Sudoeste 12 Sur 0 1016.1 -- 97
2020-11-14 17:00:00 19.4 4 Sudoeste 13 Sur 0.1 1016 -- 96
2020-11-14 16:00:00 19.9 4 Sudoeste 13 Sur 0 1015.7 -- 94
2020-11-14 15:00:00 20.2 10 Sur 17 Sur 0 1015.5 -- 92
2020-11-14 14:00:00 20.3 9 Sur 20 Sur 0 1015.9 -- 91
2020-11-14 13:00:00 19.5 14 Sur 22 Sur 0 1016.2 -- 92
2020-11-14 12:00:00 18.1 12 Sur 25 Sur 0 1016.6 -- 93
2020-11-14 11:00:00 18.7 11 Sur 21 Sur 0 1016.3 -- 95
2020-11-14 10:00:00 18.1 5 Sur 11 Sudoeste 0.1 1016.1 -- 95
2020-11-14 09:00:00 18 4 Sudoeste 23 Sur 0.1 1015.4 -- 97
2020-11-14 08:00:00 17.7 8 Sur 17 Sur 1.4 1014.6 -- 97
2020-11-14 07:00:00 17.6 10 Sur 16 Sur 1 1014.4 -- 97
2020-11-14 06:00:00 17.2 6 Sur 20 Sudoeste 0.2 1014.1 -- 94
2020-11-14 05:00:00 17.8 12 Sudoeste 19 Oeste 3 1014 -- 96
2020-11-14 04:00:00 18.3 9 Sudoeste 27 Sur 1.6 1014.3 -- 96
2020-11-14 03:00:00 18.5 12 Sudeste 22 Sudeste 0.5 1014.2 -- 97
2020-11-14 02:00:00 18.6 8 Sudeste 20 Sudeste 0 1014.6 -- 97
2020-11-14 01:00:00 18.6 9 Sudeste 15 Sur 0.1 1014.9 -- 97
2020-11-14 00:00:00 18.6 5 Sudeste 12 Sudeste 0 1015.2 -- 97
2020-11-13 23:00:00 18.8 5 Sudeste 15 Sur 0 1015.2 -- 96
2020-11-13 22:00:00 18.8 5 Sudeste 14 Sur 0 1015 -- 95
2020-11-13 21:00:00 19 9 Sur 19 Sudoeste 0 1014.8 -- 93
2020-11-13 20:00:00 18.9 9 Sur 22 Sur 0 1014.4 -- 93
2020-11-13 19:00:00 19.4 14 Sur 21 Sudoeste 0 1014.2 -- 89
2020-11-13 18:00:00 19.5 8 Sur 16 Sur 0 1013.7 -- 87
2020-11-13 17:00:00 19.8 10 Sur 19 Sur 0 1013.7 -- 82
2020-11-13 16:00:00 20.5 6 Sur 17 Sudeste 0 1013.5 -- 80
2020-11-13 15:00:00 20.6 10 Sudeste 21 Sudeste 0 1013.9 -- 75
2020-11-13 14:00:00 21.7 9 Sudeste 22 Sudeste 0 1014.3 -- 70
2020-11-13 13:00:00 20.7 14 Sudeste 22 Sudeste 0 1014.7 -- 70
2020-11-13 12:00:00 19.8 13 Sudeste 23 Sudeste 0 1015.4 -- 72
2020-11-13 11:00:00 17.5 13 Este 21 Este 0 1015.4 -- 80
2020-11-13 10:00:00 15.5 12 Este 21 Este 0 1015.3 -- 86
2020-11-13 09:00:00 14.6 12 Este 20 Este 0 1014.8 -- 89
2020-11-13 08:00:00 13.4 12 Este 21 Este 0 1014 -- 91
2020-11-13 07:00:00 13.1 13 Este 23 Este 0 1013.5 -- 91
2020-11-13 06:00:00 13.2 14 Este 23 Este 0 1013.2 -- 90
2020-11-13 05:00:00 13.1 10 Este 16 Este 0 1013.2 -- 91
2020-11-13 04:00:00 13.2 11 Nordeste 18 Nordeste 0 1013.4 -- 92
2020-11-13 03:00:00 13.1 10 Nordeste 16 Nordeste 0 1013.5 -- 94
2020-11-13 02:00:00 12.7 9 Nordeste 15 Nordeste 0 1013.5 -- 92
2020-11-13 01:00:00 12.6 6 Nordeste 10 Nordeste 0 1013.9 -- 90
2020-11-13 00:00:00 12.4 3 Nordeste 5 Norte 0 1014.1 -- 90
2020-11-12 23:00:00 13.8 3 Nordeste 6 Nordeste 0 1014.2 -- 85
2020-11-12 22:00:00 15 3 Este 8 Sudeste 0 1014 -- 80
2020-11-12 21:00:00 15.7 5 Este 12 Nordeste 0 1013.5 -- 78
2020-11-12 20:00:00 16.7 9 Nordeste 12 Nordeste 0 1013.1 -- 77
2020-11-12 19:00:00 17.9 6 Nordeste 8 Nordeste 0 1013 -- 75
2020-11-12 18:00:00 20.5 2 Sudeste 11 Sudeste 0 1012.7 -- 66
2020-11-12 17:00:00 22.7 6 Sudeste 19 Sudeste 0 1012.6 -- 57
2020-11-12 16:00:00 22.9 6 Sur 15 Este 0 1012.7 -- 56
2020-11-12 15:00:00 23.1 6 Este 24 Nordeste 0 1012.9 -- 55
2020-11-12 14:00:00 22.3 10 Este 21 Nordeste 0 1013.4 -- 56
2020-11-12 13:00:00 20.7 10 Este 21 Nordeste 0 1014.3 -- 61
2020-11-12 12:00:00 18.7 13 Nordeste 24 Este 0 1014.9 -- 68
2020-11-12 11:00:00 17.6 14 Nordeste 24 Nordeste 0 1015.2 -- 77
2020-11-12 10:00:00 15.3 15 Nordeste 27 Nordeste 0 1015.4 -- 83
2020-11-12 09:00:00 13.3 15 Nordeste 24 Nordeste 0 1015.3 -- 89
2020-11-12 08:00:00 13.3 14 Nordeste 22 Nordeste 0 1015 -- 90
2020-11-12 07:00:00 13.4 13 Nordeste 21 Nordeste 0 1014.9 -- 90
2020-11-12 06:00:00 13.6 11 Nordeste 24 Nordeste 0 1015 -- 88
2020-11-12 05:00:00 13.8 14 Nordeste 22 Este 0 1015 -- 87
2020-11-12 04:00:00 13.4 12 Nordeste 19 Nordeste 0 1015.6 -- 89
2020-11-12 03:00:00 13.7 13 Nordeste 18 Nordeste 0 1016 -- 89
2020-11-12 02:00:00 13.8 10 Nordeste 15 Nordeste 0 1016.2 -- 89
2020-11-12 01:00:00 14.1 10 Nordeste 14 Nordeste 0 1016.8 -- 88
2020-11-12 00:00:00 13.8 7 Nordeste 12 Nordeste 0 1016.9 -- 88
2020-11-11 23:00:00 14.2 6 Este 15 Nordeste 0 1016.7 -- 85
2020-11-11 22:00:00 14.8 10 Nordeste 15 Este 0 1016.9 -- 83
2020-11-11 21:00:00 16.6 10 Nordeste 14 Nordeste 0 1016.6 -- 77
2020-11-11 20:00:00 17.2 8 Nordeste 13 Nordeste 0 1016.2 -- 73
2020-11-11 19:00:00 18.1 9 Nordeste 13 Nordeste 0 1016.1 -- 70
2020-11-11 18:00:00 19.2 7 Nordeste 20 Nordeste 0 1015.9 -- 64
2020-11-11 17:00:00 22.5 10 Nordeste 21 Este 0 1015.6 -- 53
2020-11-11 16:00:00 22.2 10 Nordeste 18 Nordeste 0 1015.6 -- 55
2020-11-11 15:00:00 22.6 8 Nordeste 21 Este 0 1015.9 -- 57
2020-11-11 14:00:00 23.1 7 Este 26 Este 0 1016.3 -- 54
2020-11-11 13:00:00 22.6 12 Este 26 Este 0 1016.8 -- 57
2020-11-11 12:00:00 21 10 Este 22 Nordeste 0 1017.7 -- 61
2020-11-11 11:00:00 -- -- -- -- -- -- -- -- --
2020-11-11 10:00:00 -- -- -- -- -- -- -- -- --
2020-11-11 09:00:00 -- -- -- -- -- -- -- -- --
2020-11-11 08:00:00 -- -- -- -- -- -- -- -- --
2020-11-11 07:00:00 -- -- -- -- -- -- -- -- --
2020-11-11 06:00:00 -- -- -- -- -- -- -- -- --
2020-11-11 05:00:00 -- -- -- -- -- -- -- -- --
2020-11-11 04:00:00 -- -- -- -- -- -- -- -- --
2020-11-11 03:00:00 -- -- -- -- -- -- -- -- --
2020-11-11 02:00:00 -- -- -- -- -- -- -- -- --
2020-11-11 01:00:00 -- -- -- -- -- -- -- -- --
2020-11-11 00:00:00 -- -- -- -- -- -- -- -- --
2020-11-10 23:00:00 -- -- -- -- -- -- -- -- --
2020-11-10 22:00:00 -- -- -- -- -- -- -- -- --
2020-11-10 21:00:00 -- -- -- -- -- -- -- -- --
2020-11-10 20:00:00 -- -- -- -- -- -- -- -- --
2020-11-10 19:00:00 -- -- -- -- -- -- -- -- --
2020-11-10 18:00:00 -- -- -- -- -- -- -- -- --
2020-11-10 17:00:00 -- -- -- -- -- -- -- -- --
2020-11-10 16:00:00 -- -- -- -- -- -- -- -- --
2020-11-10 15:00:00 -- -- -- -- -- -- -- -- --
2020-11-10 14:00:00 -- -- -- -- -- -- -- -- --
2020-11-10 13:00:00 -- -- -- -- -- -- -- -- --
2020-11-10 12:00:00 -- -- -- -- -- -- -- -- --
2020-11-10 11:00:00 -- -- -- -- -- -- -- -- --
2020-11-10 10:00:00 -- -- -- -- -- -- -- -- --
2020-11-10 09:00:00 -- -- -- -- -- -- -- -- --
2020-11-10 08:00:00 -- -- -- -- -- -- -- -- --
2020-11-10 07:00:00 -- -- -- -- -- -- -- -- --
2020-11-10 06:00:00 -- -- -- -- -- -- -- -- --
2020-11-10 05:00:00 -- -- -- -- -- -- -- -- --
2020-11-10 04:00:00 -- -- -- -- -- -- -- -- --
2020-11-10 03:00:00 -- -- -- -- -- -- -- -- --
2020-11-10 02:00:00 -- -- -- -- -- -- -- -- --
2020-11-10 01:00:00 -- -- -- -- -- -- -- -- --
2020-11-10 00:00:00 -- -- -- -- -- -- -- -- --
2020-11-09 23:00:00 -- -- -- -- -- -- -- -- --
2020-11-09 22:00:00 -- -- -- -- -- -- -- -- --
2020-11-09 21:00:00 -- -- -- -- -- -- -- -- --
2020-11-09 20:00:00 -- -- -- -- -- -- -- -- --
2020-11-09 19:00:00 -- -- -- -- -- -- -- -- --
2020-11-09 18:00:00 -- -- -- -- -- -- -- -- --
2020-11-09 17:00:00 -- -- -- -- -- -- -- -- --
2020-11-09 16:00:00 -- -- -- -- -- -- -- -- --
2020-11-09 15:00:00 -- -- -- -- -- -- -- -- --
2020-11-09 14:00:00 -- -- -- -- -- -- -- -- --
2020-11-09 13:00:00 -- -- -- -- -- -- -- -- --
2020-11-09 12:00:00 -- -- -- -- -- -- -- -- --
2020-11-09 11:00:00 -- -- -- -- -- -- -- -- --
2020-11-09 10:00:00 -- -- -- -- -- -- -- -- --
2020-11-09 09:00:00 -- -- -- -- -- -- -- -- --
2020-11-09 08:00:00 -- -- -- -- -- -- -- -- --
2020-11-09 07:00:00 -- -- -- -- -- -- -- -- --
2020-11-09 06:00:00 -- -- -- -- -- -- -- -- --
2020-11-09 05:00:00 -- -- -- -- -- -- -- -- --
2020-11-09 04:00:00 -- -- -- -- -- -- -- -- --
2020-11-09 03:00:00 -- -- -- -- -- -- -- -- --
2020-11-09 02:00:00 -- -- -- -- -- -- -- -- --
2020-11-09 01:00:00 -- -- -- -- -- -- -- -- --
2020-11-09 00:00:00 -- -- -- -- -- -- -- -- --
2020-11-08 23:00:00 -- -- -- -- -- -- -- -- --
2020-11-08 22:00:00 -- -- -- -- -- -- -- -- --
2020-11-08 21:00:00 -- -- -- -- -- -- -- -- --
2020-11-08 20:00:00 -- -- -- -- -- -- -- -- --
2020-11-08 19:00:00 -- -- -- -- -- -- -- -- --
2020-11-08 18:00:00 -- -- -- -- -- -- -- -- --
2020-11-08 17:00:00 -- -- -- -- -- -- -- -- --
2020-11-08 16:00:00 -- -- -- -- -- -- -- -- --
2020-11-08 15:00:00 -- -- -- -- -- -- -- -- --
2020-11-08 14:00:00 -- -- -- -- -- -- -- -- --
2020-11-08 13:00:00 -- -- -- -- -- -- -- -- --
2020-11-08 12:00:00 -- -- -- -- -- -- -- -- --
2020-11-08 11:00:00 -- -- -- -- -- -- -- -- --
2020-11-08 10:00:00 -- -- -- -- -- -- -- -- --
2020-11-08 09:00:00 -- -- -- -- -- -- -- -- --
2020-11-08 08:00:00 -- -- -- -- -- -- -- -- --
2020-11-08 07:00:00 -- -- -- -- -- -- -- -- --
2020-11-08 06:00:00 -- -- -- -- -- -- -- -- --
2020-11-08 05:00:00 -- -- -- -- -- -- -- -- --
2020-11-08 04:00:00 -- -- -- -- -- -- -- -- --
2020-11-08 03:00:00 -- -- -- -- -- -- -- -- --
2020-11-08 02:00:00 -- -- -- -- -- -- -- -- --
2020-11-08 01:00:00 -- -- -- -- -- -- -- -- --
2020-11-08 00:00:00 -- -- -- -- -- -- -- -- --
2020-11-07 23:00:00 -- -- -- -- -- -- -- -- --
2020-11-07 22:00:00 -- -- -- -- -- -- -- -- --
2020-11-07 21:00:00 -- -- -- -- -- -- -- -- --
2020-11-07 20:00:00 -- -- -- -- -- -- -- -- --
2020-11-07 19:00:00 -- -- -- -- -- -- -- -- --
2020-11-07 18:00:00 -- -- -- -- -- -- -- -- --
2020-11-07 17:00:00 -- -- -- -- -- -- -- -- --
2020-11-07 16:00:00 -- -- -- -- -- -- -- -- --
2020-11-07 15:00:00 -- -- -- -- -- -- -- -- --
2020-11-07 14:00:00 -- -- -- -- -- -- -- -- --
2020-11-07 13:00:00 -- -- -- -- -- -- -- -- --
2020-11-07 12:00:00 -- -- -- -- -- -- -- -- --
2020-11-07 11:00:00 -- -- -- -- -- -- -- -- --
2020-11-07 10:00:00 -- -- -- -- -- -- -- -- --
2020-11-07 09:00:00 -- -- -- -- -- -- -- -- --
2020-11-07 08:00:00 -- -- -- -- -- -- -- -- --
2020-11-07 07:00:00 -- -- -- -- -- -- -- -- --
2020-11-07 06:00:00 -- -- -- -- -- -- -- -- --
2020-11-07 05:00:00 -- -- -- -- -- -- -- -- --
2020-11-07 04:00:00 -- -- -- -- -- -- -- -- --
2020-11-07 03:00:00 -- -- -- -- -- -- -- -- --
2020-11-07 02:00:00 -- -- -- -- -- -- -- -- --
2020-11-07 01:00:00 -- -- -- -- -- -- -- -- --
2020-11-07 00:00:00 -- -- -- -- -- -- -- -- --
2020-11-06 23:00:00 -- -- -- -- -- -- -- -- --
2020-11-06 22:00:00 -- -- -- -- -- -- -- -- --
2020-11-06 21:00:00 -- -- -- -- -- -- -- -- --
2020-11-06 20:00:00 -- -- -- -- -- -- -- -- --
2020-11-06 19:00:00 -- -- -- -- -- -- -- -- --
2020-11-06 18:00:00 -- -- -- -- -- -- -- -- --
2020-11-06 17:00:00 -- -- -- -- -- -- -- -- --
2020-11-06 16:00:00 -- -- -- -- -- -- -- -- --
2020-11-06 15:00:00 -- -- -- -- -- -- -- -- --
2020-11-06 14:00:00 -- -- -- -- -- -- -- -- --
2020-11-06 13:00:00 -- -- -- -- -- -- -- -- --
2020-11-06 12:00:00 -- -- -- -- -- -- -- -- --
2020-11-06 11:00:00 -- -- -- -- -- -- -- -- --
2020-11-06 10:00:00 -- -- -- -- -- -- -- -- --
2020-11-06 09:00:00 -- -- -- -- -- -- -- -- --
2020-11-06 08:00:00 -- -- -- -- -- -- -- -- --
2020-11-06 07:00:00 -- -- -- -- -- -- -- -- --
2020-11-06 06:00:00 -- -- -- -- -- -- -- -- --
2020-11-06 05:00:00 -- -- -- -- -- -- -- -- --
2020-11-06 04:00:00 -- -- -- -- -- -- -- -- --
2020-11-06 03:00:00 -- -- -- -- -- -- -- -- --
2020-11-06 02:00:00 -- -- -- -- -- -- -- -- --
2020-11-06 01:00:00 -- -- -- -- -- -- -- -- --
2020-11-06 00:00:00 -- -- -- -- -- -- -- -- --
2020-11-05 23:00:00 -- -- -- -- -- -- -- -- --
2020-11-05 22:00:00 -- -- -- -- -- -- -- -- --
2020-11-05 21:00:00 -- -- -- -- -- -- -- -- --
2020-11-05 20:00:00 -- -- -- -- -- -- -- -- --
2020-11-05 19:00:00 -- -- -- -- -- -- -- -- --
2020-11-05 18:00:00 -- -- -- -- -- -- -- -- --
2020-11-05 17:00:00 -- -- -- -- -- -- -- -- --
2020-11-05 16:00:00 -- -- -- -- -- -- -- -- --
2020-11-05 15:00:00 -- -- -- -- -- -- -- -- --
2020-11-05 14:00:00 -- -- -- -- -- -- -- -- --
2020-11-05 13:00:00 -- -- -- -- -- -- -- -- --
2020-11-05 12:00:00 -- -- -- -- -- -- -- -- --
2020-11-05 11:00:00 -- -- -- -- -- -- -- -- --
2020-11-05 10:00:00 -- -- -- -- -- -- -- -- --
2020-11-05 09:00:00 -- -- -- -- -- -- -- -- --
2020-11-05 08:00:00 -- -- -- -- -- -- -- -- --
2020-11-05 07:00:00 -- -- -- -- -- -- -- -- --
2020-11-05 06:00:00 -- -- -- -- -- -- -- -- --
2020-11-05 05:00:00 -- -- -- -- -- -- -- -- --
2020-11-05 04:00:00 -- -- -- -- -- -- -- -- --
2020-11-05 03:00:00 -- -- -- -- -- -- -- -- --
2020-11-05 02:00:00 -- -- -- -- -- -- -- -- --
2020-11-05 01:00:00 -- -- -- -- -- -- -- -- --
2020-11-05 00:00:00 -- -- -- -- -- -- -- -- --
2020-11-04 23:00:00 -- -- -- -- -- -- -- -- --
2020-11-04 22:00:00 -- -- -- -- -- -- -- -- --
2020-11-04 21:00:00 -- -- -- -- -- -- -- -- --
2020-11-04 20:00:00 18.4 13 Sudeste 90 Sudeste 0 1005.4 -- 83
2020-11-04 19:00:00 18.9 9 Sur 27 Sur 0 1005.7 -- 85
2020-11-04 18:00:00 18.4 10 Sudeste 49 Sudeste 0 1006.2 -- 84
2020-11-04 17:00:00 18.5 17 Sur 27 Sur 0 1006.7 -- 82
2020-11-04 16:00:00 18.3 6 Sudoeste 9 Sur 0 1007.8 -- 82
2020-11-04 15:00:00 17.6 4 Oeste 9 Oeste 0 1008.5 -- 84
2020-11-04 14:00:00 17.3 3 Oeste 8 Oeste 0 1009.6 -- 85
2020-11-04 13:00:00 17.5 3 Oeste 9 Oeste 0 1010.7 -- 86
2020-11-04 12:00:00 16.7 3 Oeste 9 Oeste 0 1011.6 -- 88
2020-11-04 11:00:00 17.1 3 Sudoeste 9 Oeste 0 1012.1 -0.8 91
2020-11-04 10:00:00 16.9 0 Calma 5 Nordeste 0 1012.7 -- 95
2020-11-04 09:00:00 14.6 2 Norte 9 Nordeste 0 1012.7 -- 96
2020-11-04 08:00:00 14.2 2 Norte 7 Norte 0 1012.9 -- 96
2020-11-04 07:00:00 14 0 Calma 5 Noroeste 0 1013.2 -- 97
2020-11-04 06:00:00 12.8 3 Nordeste 12 Norte 0 1013.7 -- 96
2020-11-04 05:00:00 13.2 6 Norte 17 Norte 0 1014.1 -- 93
2020-11-04 04:00:00 13.5 10 Norte 15 Nordeste 0 1014.6 -- 93
2020-11-04 03:00:00 13.9 8 Norte 13 Norte 0 1015 -- 94
2020-11-04 02:00:00 14.9 6 Norte 12 Norte 0 1015.2 -- 95
2020-11-04 01:00:00 15.8 6 Norte 12 Norte 0 1015.9 -- 95
2020-11-04 00:00:00 16.5 6 Norte 12 Nordeste 0 1016.5 -- 95
2020-11-03 23:00:00 16.9 6 Nordeste 9 Noroeste 0 1016.8 -- 96
2020-11-03 22:00:00 17.4 5 Norte 8 Norte 0 1017 -- 97
2020-11-03 21:00:00 17.3 3 Noroeste 5 Noroeste 0.1 1017.4 -- 97
2020-11-03 20:00:00 17.6 0 Calma 4 Noroeste 0 1017.2 -- 96
2020-11-03 19:00:00 18.2 0 Calma 5 Norte 0 1016.9 -- 96
2020-11-03 18:00:00 18.2 0 Calma 14 Oeste 0.8 1017 -- 95
2020-11-03 17:00:00 18.3 3 Noroeste 16 Norte 0.5 1017.1 -- 93
2020-11-03 16:00:00 18.3 5 Noroeste 10 Oeste 0.1 1017.2 -- 94
2020-11-03 15:00:00 18.7 6 Norte 16 Norte 0.5 1017.3 -- 95
2020-11-03 14:00:00 18.2 10 Norte 18 Norte 0.2 1017.4 -- 93
2020-11-03 13:00:00 17.1 8 Norte 19 Norte 0.2 1018.1 -- 91
2020-11-03 12:00:00 18 14 Norte 22 Nordeste 0 1018.5 -- 83
2020-11-03 11:00:00 17.7 11 Norte 20 Norte 0 1018.6 -- 84
2020-11-03 10:00:00 18.2 11 Noroeste 18 Norte 0 1018.5 -- 87
2020-11-03 09:00:00 18.3 3 Oeste 10 Nordeste 0 1017.9 -- 88
2020-11-03 08:00:00 17.6 6 Nordeste 10 Norte 0 1017.5 -- 89
2020-11-03 07:00:00 17.4 6 Norte 12 Norte 0 1017.3 -- 89
2020-11-03 06:00:00 16.8 7 Norte 13 Norte 0 1017.1 -- 91
2020-11-03 05:00:00 16.2 6 Nordeste 11 Nordeste 0 1016.9 -- 93
2020-11-03 04:00:00 16.6 6 Nordeste 10 Norte 0 1017.1 -- 91
2020-11-03 03:00:00 16.8 6 Nordeste 17 Norte 0 1017 -- 90
2020-11-03 02:00:00 17.8 13 Norte 22 Norte 0 1016.8 -- 87
2020-11-03 01:00:00 17.8 14 Norte 20 Norte 0 1016.9 -- 87
2020-11-03 00:00:00 18.1 8 Norte 16 Norte 0 1017.2 -- 86
2020-11-02 23:00:00 18.5 8 Norte 23 Norte 0 1017.2 -- 85
2020-11-02 22:00:00 18.8 13 Norte 23 Norte 0 1016.9 -- 84
2020-11-02 21:00:00 19.1 13 Norte 23 Norte 0 1016.8 -- 82
2020-11-02 20:00:00 20.2 14 Norte 23 Norte 0 1017 -- 77
2020-11-02 19:00:00 21.1 12 Norte 22 Noroeste 0 1016.2 -- 73
2020-11-02 18:00:00 22.2 8 Noroeste 15 Noroeste 0 1016 -- 71
2020-11-02 17:00:00 22.9 6 Oeste 15 Oeste 0 1015.8 -- 66
2020-11-02 16:00:00 23.2 7 Oeste 15 Oeste 0 1016 -- 65
2020-11-02 15:00:00 23 6 Oeste 14 Oeste 0 1016.1 -- 68
2020-11-02 14:00:00 23 8 Oeste 14 Oeste 0 1016.7 -- 63
2020-11-02 13:00:00 22.8 6 Sudoeste 12 Sudoeste 0 1017.5 -- 63
2020-11-02 12:00:00 23 6 Sudoeste 14 Este 0 1018.1 -- 65
2020-11-02 11:00:00 22.8 6 Nordeste 15 Este 0 1018 -- 57
2020-11-02 10:00:00 19.1 2 Sudoeste 6 Sudoeste 0 1018.1 -- 75
2020-11-02 09:00:00 14.7 3 Norte 7 Norte 0 1017.6 -- 95
2020-11-02 08:00:00 11.7 4 Nordeste 9 Nordeste 0 1017.1 -- 97
2020-11-02 07:00:00 12.6 4 Norte 8 Noroeste 0 1016.8 -- 96
2020-11-02 06:00:00 13.1 5 Norte 9 Norte 0 1016.4 -- 95
2020-11-02 05:00:00 12.6 0 Calma 4 Noroeste 0 1016.7 -- 94
2020-11-02 04:00:00 13.7 0 Calma 8 Norte 0 1016.5 -- 91
2020-11-02 03:00:00 16.2 0 Calma 17 Norte 0 1016.9 -- 86
2020-11-02 02:00:00 17.1 13 Norte 19 Norte 0 1016.7 -- 84
2020-11-02 01:00:00 17.5 11 Nordeste 20 Norte 0 1016.9 -- 83
2020-11-02 00:00:00 17.8 13 Norte 17 Norte 0 1017.3 -- 82
2020-11-01 23:00:00 18.3 12 Norte 17 Norte 0 1017.6 -- 79
2020-11-01 22:00:00 19 10 Norte 18 Norte 0 1017.7 -- 77
2020-11-01 21:00:00 18.6 6 Norte 10 Noroeste 0 1017.6 -- 79
2020-11-01 20:00:00 19.1 4 Noroeste 7 Noroeste 0 1017.6 -- 74
2020-11-01 19:00:00 20.4 4 Noroeste 8 Noroeste 0 1017.5 -- 67
2020-11-01 18:00:00 23.5 5 Noroeste 20 Noroeste 0 1017.2 -- 64
2020-11-01 17:00:00 23.5 12 Oeste 23 Noroeste 0 1017.4 -- 64
2020-11-01 16:00:00 22.9 7 Oeste 18 Noroeste 0 1018 -- 73
2020-11-01 15:00:00 22.9 8 Oeste 15 Oeste 0 1018.3 -- 73
2020-11-01 14:00:00 20.7 12 Oeste 18 Oeste 0 1019 -- 79
2020-11-01 13:00:00 21.6 5 Oeste 13 Oeste 0 1019.6 -- 73
2020-11-01 12:00:00 22.5 5 Sudoeste 10 Sudoeste 0 1020.3 -- 67
2020-11-01 11:00:00 22.8 2 Nordeste 10 Norte 0 1020.6 -- 59
2020-11-01 10:00:00 19.8 6 Norte 13 Noroeste 0 1020.3 -- 70
2020-11-01 09:00:00 16.7 7 Norte 13 Noroeste 0 1019.6 -- 86
2020-11-01 08:00:00 14 3 Norte 14 Norte 0 1019.2 -- 90
2020-11-01 07:00:00 14.6 9 Norte 14 Norte 0 1018.9 -- 91
2020-11-01 06:00:00 14.7 7 Norte 11 Nordeste 0 1019.1 -- 89
2020-11-01 05:00:00 15.5 7 Norte 12 Norte 0 1018.8 -- 87
2020-11-01 04:00:00 15.8 6 Nordeste 11 Norte 0 1019.4 -- 85
2020-11-01 03:00:00 17.5 4 Nordeste 17 Nordeste 0 1019.3 -- 77
2020-11-01 02:00:00 17.5 11 Norte 22 Norte 0 1019.4 -- 77
2020-11-01 01:00:00 18.4 14 Norte 22 Norte 0 1019.6 -- 73
2020-11-01 00:00:00 18 12 Norte 17 Norte 0 1019.7 -- 76
2020-10-31 23:00:00 16 6 Norte 12 Norte 0 1019.6 -- 96
2020-10-31 22:00:00 15.3 0 Calma 6 Oeste 0 1019.6 -- 90
2020-10-31 21:00:00 17.8 4 Oeste 9 Oeste 0 1019.6 -- 86
2020-10-31 20:00:00 17.7 6 Noroeste 12 Noroeste 0 1019.6 -- 83
2020-10-31 19:00:00 18.4 4 Noroeste 11 Oeste 0 1019.3 -- 86
2020-10-31 18:00:00 19.4 5 Oeste 9 Sudoeste 0 1018.9 -- 83
2020-10-31 17:00:00 20.6 6 Sudoeste 10 Sudoeste 0 1018.9 -- 78
2020-10-31 16:00:00 20.6 7 Sur 10 Sur 0 1018.9 -- 76
2020-10-31 15:00:00 20.8 7 Sudoeste 12 Sudoeste 0 1019.1 -- 71
2020-10-31 14:00:00 20.5 8 Sudoeste 12 Sudoeste 0 1020 -- 72
2020-10-31 13:00:00 21 7 Sudoeste 11 Sudoeste 0 1020.4 -- 71
2020-10-31 12:00:00 20.5 6 Sudoeste 10 Sur 0 1020.8 -- 72
2020-10-31 11:00:00 20.3 6 Sudoeste 9 Sudoeste 0 1021.2 -- 64
2020-10-31 10:00:00 19.2 3 Nordeste 13 Este 0 1021 -- 66
2020-10-31 09:00:00 15.6 7 Este 14 Este 0 1020.1 -- 80
2020-10-31 08:00:00 12.6 7 Este 13 Este 0 1019.6 -- 90
2020-10-31 07:00:00 11.4 5 Este 8 Nordeste 0 1019.5 -- 95
2020-10-31 06:00:00 12.6 2 Nordeste 7 Nordeste 0 1019.3 -- 95
2020-10-31 05:00:00 12.2 0 Calma 5 Este 0 1018.6 -- 94
2020-10-31 04:00:00 11.7 5 Este 6 Este 0 1018.4 -- 92
2020-10-31 03:00:00 12.5 0 Calma 7 Oeste 0 1018.5 -- 90
2020-10-31 02:00:00 12.5 0 Calma -- -- 0 1018.6 -- 85
2020-10-31 01:00:00 13.2 0 Calma 0 Calma 0 1018.8 -- 78
2020-10-31 00:00:00 14.7 0 Calma 4 Este 0 1018.6 -- 70
2020-10-30 23:00:00 16.9 2 Noroeste 10 Noroeste 0 1018.8 -- 64
2020-10-30 22:00:00 18 5 Oeste 9 Noroeste 0 1018.6 -- 61
2020-10-30 21:00:00 17.8 6 Noroeste 12 Norte 0 1018.1 -- 59
2020-10-30 20:00:00 17.5 6 Noroeste 9 Noroeste 0 1018.1 -- 58
2020-10-30 19:00:00 19.3 0 Calma 5 Noroeste 0 1017.6 -- 55
2020-10-30 18:00:00 22.8 3 Oeste 9 Oeste 0 1017.5 -- 46
2020-10-30 17:00:00 23 4 Oeste 10 Oeste 0 1017.5 -- 49
2020-10-30 16:00:00 23.4 5 Oeste 10 Oeste 0 1017.5 -- 45
2020-10-30 15:00:00 22.6 7 Oeste 14 Oeste 0 1017.8 -- 54
2020-10-30 14:00:00 22.6 8 Oeste 14 Oeste 0 1018.3 -- 63
2020-10-30 13:00:00 22.9 6 Sudoeste 8 Sudoeste 0 1018.9 -- 50
2020-10-30 12:00:00 23.1 6 Sudoeste 11 Nordeste 0 1019.5 -- 51
2020-10-30 11:00:00 22.6 9 Este 22 Este 0 1019.4 -- 52
2020-10-30 10:00:00 19.8 12 Nordeste 21 Este 0 1019.3 -- 59
2020-10-30 09:00:00 16.9 12 Nordeste 20 Este 0 1018.9 -- 70
2020-10-30 08:00:00 14.3 13 Nordeste 22 Nordeste 0 1018.2 -- 78
2020-10-30 07:00:00 14.4 13 Nordeste 20 Nordeste 0 1017.8 -- 78
2020-10-30 06:00:00 14.2 13 Nordeste 18 Nordeste 0 1017.7 -- 78
2020-10-30 05:00:00 13.6 12 Nordeste 17 Nordeste 0 1017.7 -- 80
2020-10-30 04:00:00 13.4 10 Nordeste 15 Nordeste 0 1017.9 -- 80
2020-10-30 03:00:00 15 8 Nordeste 13 Nordeste 0 1018 -- 77
2020-10-30 02:00:00 15.7 6 Norte 11 Norte 0 1018.4 -- 74
2020-10-30 01:00:00 16 5 Norte 9 Norte 0 1018.5 -- 75
2020-10-30 00:00:00 15.8 4 Norte 8 Noroeste 0 1018.7 -- 78
2020-10-29 23:00:00 15.5 5 Noroeste 8 Noroeste 0 1018.8 -- 79
2020-10-29 22:00:00 15.7 5 Noroeste 7 Noroeste 0 1018.5 -- 82
2020-10-29 21:00:00 15.4 0 Calma 5 Noroeste 0 1018.1 -- 81
2020-10-29 20:00:00 16.8 0 Calma 5 Noroeste 0 1017.9 -- 78
2020-10-29 19:00:00 19.1 4 Noroeste 7 Oeste 0 1017.6 -- 77
2020-10-29 18:00:00 22.3 4 Oeste 7 Sur 0 1017.4 -- 70
2020-10-29 17:00:00 24.3 3 Noroeste 10 Noroeste 0 1017.3 -- 52
2020-10-29 16:00:00 23.9 5 Oeste 13 Oeste 0 1017.3 -- 58
2020-10-29 15:00:00 23.8 5 Oeste 17 Oeste 0 1017.4 -- 59
2020-10-29 14:00:00 26.3 5 Este 18 Nordeste 0 1018.1 -- 43
2020-10-29 13:00:00 25 10 Este 23 Este 0 1018.9 -- 46
2020-10-29 12:00:00 23.6 12 Nordeste 30 Este 0 1019.6 -- 53
2020-10-29 11:00:00 21.7 19 Nordeste 32 Este 0 1019.7 -- 61
2020-10-29 10:00:00 20.6 13 Nordeste 22 Este 0 1019.9 -- 69
2020-10-29 09:00:00 17.5 8 Nordeste 14 Nordeste 0 1019.4 -- 82
2020-10-29 08:00:00 14 9 Nordeste 13 Nordeste 0 1018.9 -- 95
2020-10-29 07:00:00 13.2 4 Nordeste 9 Norte 0 1018.5 -- 95
2020-10-29 06:00:00 13.6 3 Norte 10 Nordeste 0 1018.1 -- 92
2020-10-29 05:00:00 15.5 7 Nordeste 20 Nordeste 0 1018 -- 88
2020-10-29 04:00:00 15.9 13 Nordeste 26 Nordeste 0 1017.6 -- 87
2020-10-29 03:00:00 16.5 16 Nordeste 25 Nordeste 0 1017.9 -- 85
2020-10-29 02:00:00 16.6 15 Nordeste 23 Nordeste 0 1017.9 -- 85
2020-10-29 01:00:00 16.1 11 Nordeste 17 Nordeste 0 1018.2 -- 85
2020-10-29 00:00:00 15.8 9 Nordeste 14 Nordeste 0 1018.4 -- 88
2020-10-28 23:00:00 15.8 9 Nordeste 18 Norte 0 1018.6 -- 90
2020-10-28 22:00:00 15.7 6 Nordeste 10 Nordeste 0 1018.5 -- 94
2020-10-28 21:00:00 15.5 0 Calma 5 Noroeste 0 1018.3 -- 88
2020-10-28 20:00:00 17 3 Noroeste 12 Noroeste 0 1017.9 -- 87
2020-10-28 19:00:00 18 7 Noroeste 14 Noroeste 0 1017.5 -- 80
2020-10-28 18:00:00 19.4 8 Oeste 18 Oeste 0 1017 -- 68
2020-10-28 17:00:00 20.6 13 Oeste 21 Oeste 0 1017 -- 65
2020-10-28 16:00:00 22.7 4 Sudoeste 13 Sudoeste 0 1017.1 -- 58
2020-10-28 15:00:00 20 10 Sudoeste 16 Sudoeste 0 1017.5 -- 69
2020-10-28 14:00:00 20.2 7 Sudoeste 18 Oeste 0 1017.6 -- 65
2020-10-28 13:00:00 20.3 6 Sudoeste 12 Sudoeste 0 1018.6 -- 63
2020-10-28 12:00:00 19.1 6 Norte 16 Nordeste 0 1019.1 -- 59
2020-10-28 11:00:00 17.9 10 Nordeste 18 Este 0 1018.8 -- 65
2020-10-28 10:00:00 16.5 10 Nordeste 18 Nordeste 0 1018.7 -- 68
2020-10-28 09:00:00 14.9 8 Nordeste 14 Nordeste 0 1018.3 -- 72
2020-10-28 08:00:00 11.9 8 Nordeste 13 Nordeste 0 1017.4 -- 82
2020-10-28 07:00:00 12.1 8 Norte 13 Norte 0 1017.2 -- 82
2020-10-28 06:00:00 12.1 8 Norte 14 Norte 0 1016.8 -- 82
2020-10-28 05:00:00 12.1 10 Norte 15 Norte 0 1016.5 -- 81
2020-10-28 04:00:00 12.9 9 Nordeste 17 Nordeste 0 1016.4 -- 80
2020-10-28 03:00:00 12.8 12 Norte 17 Norte 0 1016.6 -- 78
2020-10-28 02:00:00 13.3 11 Norte 17 Norte 0 1016.8 -- 78
2020-10-28 01:00:00 13.2 9 Norte 15 Norte 0 1016.9 -- 80
2020-10-28 00:00:00 13.1 6 Norte 11 Noroeste 0 1017.2 -- 84